Mint Hill, Missouri
Current Conditions -  °F | °C
As of 6:53 PM on Friday 28 Nov 2014 (Local Time) from KJEF Reporting Station
Clear Clear  
Wind Chill: 50°   Ceiling: Unl
Heat Index: 50°   Visibility: 10mi
Dew Point: 33°   Wind: 8mph
Humidity: 52%   Direction: 110°ESE
Pressure: 29.87"   Gusts: NA
Location:  38.6366°N, 91.76°W
Report Text: KJEF 290053Z 11007KT 10SM CLR 10/01 A2987 RMK AO2 SLP107 T01000006 $
Loading
Personal Weather Stations






























Interactive Weather Map New forecast layout! Learn more

10-Day Weather Forecast

Advertisements
Track Severe Weather on mobile